createdAt,value
2023-04-23T00:03:02.592Z,4.32
2023-04-23T00:08:03.406Z,4.55
2023-04-23T00:13:02.776Z,4.63
2023-04-23T00:18:03.070Z,4.07
2023-04-23T00:23:02.250Z,5.22
2023-04-23T00:28:01.067Z,3.75
2023-04-23T00:33:00.039Z,3.67
2023-04-23T00:38:00.453Z,4.32
2023-04-23T00:42:59.561Z,3.65
2023-04-23T00:47:59.626Z,4.00
2023-04-23T00:52:58.679Z,3.47
2023-04-23T00:57:58.888Z,5.78
2023-04-23T01:02:58.574Z,7.28
2023-04-23T01:07:57.876Z,6.20
2023-04-23T01:12:58.231Z,4.85
2023-04-23T01:17:58.602Z,4.53
2023-04-23T01:22:58.792Z,4.55
2023-04-23T01:27:58.306Z,4.35
2023-04-23T01:32:57.927Z,4.35
2023-04-23T01:38:00.864Z,5.15
2023-04-23T01:43:00.379Z,5.63
2023-04-23T01:47:59.582Z,5.18
2023-04-23T01:52:59.828Z,4.68
2023-04-23T01:57:58.784Z,5.88
2023-04-23T02:02:57.688Z,5.68
2023-04-23T02:07:56.669Z,5.28
2023-04-23T02:12:56.881Z,5.25
2023-04-23T02:17:55.697Z,6.03
2023-04-23T02:22:55.062Z,6.97
2023-04-23T02:27:54.088Z,7.65
2023-04-23T02:32:54.267Z,5.68
2023-04-23T02:37:54.349Z,5.40
2023-04-23T02:42:53.102Z,6.38
2023-04-23T02:47:53.729Z,5.32
2023-04-23T02:52:52.929Z,4.72
2023-04-23T02:57:52.030Z,5.13
2023-04-23T03:02:51.181Z,4.93
2023-04-23T03:07:51.496Z,4.47
2023-04-23T03:12:50.416Z,4.95
2023-04-23T03:17:49.302Z,4.57
2023-04-23T03:22:48.207Z,5.95
2023-04-23T03:27:48.904Z,4.82
2023-04-23T03:32:52.459Z,4.72
2023-04-23T03:37:54.861Z,5.10
2023-04-23T03:43:01.145Z,11.82
2023-04-23T03:48:21.000Z,25.70
2023-04-23T03:53:20.190Z,23.45
2023-04-23T03:58:43.031Z,27.45
2023-04-23T04:03:42.090Z,24.67
2023-04-23T04:08:41.839Z,15.55
2023-04-23T04:13:40.591Z,7.78
2023-04-23T04:18:40.738Z,20.90
2023-04-23T04:23:39.996Z,7.93
2023-04-23T04:28:38.709Z,6.90
2023-04-23T04:33:39.869Z,6.43
2023-04-23T04:38:39.995Z,8.52
2023-04-23T04:43:39.150Z,10.68
2023-04-23T04:48:37.857Z,8.80
2023-04-23T04:53:37.171Z,7.07
2023-04-23T04:58:37.597Z,7.25
2023-04-23T05:03:37.939Z,7.25
2023-04-23T05:08:37.001Z,7.53
2023-04-23T05:13:37.234Z,6.60
2023-04-23T05:18:36.335Z,6.50
2023-04-23T05:23:35.711Z,6.47
2023-04-23T05:28:34.805Z,5.10
2023-04-23T05:33:46.322Z,5.15
2023-04-23T05:38:50.660Z,5.63
2023-04-23T05:43:50.821Z,4.65
2023-04-23T05:48:56.432Z,3.80
2023-04-23T05:53:57.448Z,4.10
2023-04-23T05:58:57.169Z,4.35
2023-04-23T06:03:57.990Z,4.50
2023-04-23T06:09:04.707Z,4.22
2023-04-23T06:14:04.236Z,3.90
2023-04-23T06:19:04.845Z,4.30
2023-04-23T06:24:03.910Z,4.85
2023-04-23T06:29:03.915Z,5.18
2023-04-23T06:34:15.740Z,4.03
2023-04-23T06:39:16.448Z,5.07
2023-04-23T06:44:16.149Z,5.68
2023-04-23T06:49:28.030Z,4.65
2023-04-23T06:54:32.544Z,4.07
2023-04-23T06:59:33.590Z,3.70
2023-04-23T07:04:40.208Z,4.50
2023-04-23T07:09:39.546Z,4.38
2023-04-23T07:14:45.323Z,3.28
2023-04-23T07:20:04.289Z,3.17
2023-04-23T07:25:04.453Z,3.38
2023-04-23T07:30:08.844Z,3.47
2023-04-23T07:35:15.332Z,3.30
2023-04-23T07:40:19.639Z,3.60
2023-04-23T07:45:19.539Z,2.85
2023-04-23T07:50:26.371Z,2.97
2023-04-23T07:55:26.903Z,3.45
2023-04-23T08:00:30.936Z,2.40
2023-04-23T08:05:31.483Z,3.28
2023-04-23T08:10:36.667Z,3.92
2023-04-23T08:15:38.269Z,3.33
2023-04-23T08:20:42.331Z,3.30
2023-04-23T08:25:46.516Z,3.08
2023-04-23T08:30:50.895Z,8.05
2023-04-23T08:35:58.260Z,11.70
2023-04-23T08:41:04.426Z,5.55
2023-04-23T08:46:09.361Z,4.55
2023-04-23T08:51:22.541Z,4.50
2023-04-23T08:56:23.291Z,3.67
2023-04-23T09:01:26.902Z,2.50
2023-04-23T09:06:42.745Z,2.50
2023-04-23T09:11:43.135Z,3.28
2023-04-23T09:16:50.369Z,2.40
2023-04-23T09:21:56.273Z,2.67
2023-04-23T09:26:59.301Z,3.28
2023-04-23T09:32:10.681Z,2.28
2023-04-23T09:37:19.100Z,2.63
2023-04-23T09:42:18.371Z,3.35
2023-04-23T09:47:19.307Z,2.33
2023-04-23T09:52:24.973Z,2.70
2023-04-23T09:57:28.239Z,2.60
2023-04-23T10:02:30.411Z,2.67
2023-04-23T10:07:33.945Z,2.72
2023-04-23T10:12:53.726Z,2.70
2023-04-23T10:17:54.564Z,2.47
2023-04-23T10:22:57.996Z,3.15
2023-04-23T10:27:59.477Z,2.70
2023-04-23T10:33:04.021Z,3.10
2023-04-23T10:38:04.907Z,3.00
2023-04-23T10:43:04.340Z,3.67
2023-04-23T10:48:04.528Z,2.50
2023-04-23T10:53:05.382Z,2.50
2023-04-23T10:58:06.508Z,2.00
2023-04-23T11:03:05.534Z,2.75
2023-04-23T11:08:18.799Z,2.65
2023-04-23T11:13:23.580Z,2.58
2023-04-23T11:18:25.238Z,2.65
2023-04-23T11:23:34.010Z,6.00
2023-04-23T11:28:36.470Z,6.63
2023-04-23T11:33:38.708Z,6.13
2023-04-23T11:38:38.934Z,4.43
2023-04-23T11:43:44.092Z,4.82
2023-04-23T11:48:47.391Z,4.75
2023-04-23T11:53:48.235Z,4.25
2023-04-23T11:58:49.720Z,4.20
2023-04-23T12:03:50.999Z,3.60
2023-04-23T12:08:51.239Z,2.75
2023-04-23T12:13:50.960Z,2.90
2023-04-23T12:18:55.125Z,3.20
2023-04-23T12:23:55.355Z,3.40
2023-04-23T12:34:00.656Z,3.35
2023-04-23T12:39:23.613Z,3.97
2023-04-23T12:44:23.243Z,2.88
2023-04-23T12:49:21.960Z,2.23
2023-04-23T12:54:22.360Z,2.50
2023-04-23T12:59:22.320Z,2.20
2023-04-23T13:04:24.127Z,2.67
2023-04-23T13:09:29.787Z,2.38
2023-04-23T13:14:36.494Z,2.20
2023-04-23T13:19:39.948Z,1.80
2023-04-23T13:24:43.255Z,2.15
2023-04-23T13:29:56.193Z,2.20
2023-04-23T13:35:02.348Z,2.17
2023-04-23T13:40:10.699Z,3.85
2023-04-23T13:45:26.124Z,3.08
2023-04-23T13:50:26.814Z,2.05
2023-04-23T13:55:27.069Z,2.58
2023-04-23T14:00:28.580Z,2.45
2023-04-23T14:05:27.331Z,2.30
2023-04-23T14:10:28.170Z,2.20
2023-04-23T14:15:26.986Z,2.55
2023-04-23T14:20:25.834Z,2.88
2023-04-23T14:30:31.684Z,25.67
2023-04-23T14:35:41.860Z,6.65
2023-04-23T14:40:43.359Z,2.10
2023-04-23T14:45:42.419Z,3.33
2023-04-23T14:50:43.561Z,3.40
2023-04-23T14:55:49.986Z,3.03
2023-04-23T15:00:49.672Z,2.65
2023-04-23T15:05:48.563Z,2.47
2023-04-23T15:10:48.952Z,2.40
2023-04-23T15:15:54.204Z,2.40
2023-04-23T15:20:57.031Z,2.50
2023-04-23T15:25:57.508Z,3.22
2023-04-23T15:30:57.144Z,3.17
2023-04-23T15:35:59.396Z,2.03
2023-04-23T15:41:02.772Z,1.92
2023-04-23T15:46:13.293Z,3.17
2023-04-23T15:51:13.757Z,3.58
2023-04-23T15:56:15.628Z,3.05
2023-04-23T16:01:21.902Z,2.50
2023-04-23T16:06:29.096Z,3.10
2023-04-23T16:11:30.785Z,2.67
2023-04-23T16:16:33.529Z,3.15
2023-04-23T16:21:32.909Z,8.30
2023-04-23T16:26:42.149Z,7.67
2023-04-23T16:31:48.829Z,12.27
2023-04-23T16:36:55.576Z,5.53
2023-04-23T16:41:59.873Z,6.07
2023-04-23T16:46:59.164Z,4.10
2023-04-23T16:51:57.920Z,4.20
2023-04-23T16:56:58.738Z,4.13
2023-04-23T17:01:57.849Z,3.40
2023-04-23T17:06:56.734Z,3.63
2023-04-23T17:11:56.826Z,3.80
2023-04-23T17:16:57.467Z,3.78
2023-04-23T17:21:56.801Z,3.15
2023-04-23T17:26:55.548Z,3.72
2023-04-23T17:31:54.409Z,4.10
2023-04-23T17:36:54.596Z,4.13
2023-04-23T17:41:53.345Z,4.05
2023-04-23T17:46:54.725Z,3.28
2023-04-23T17:51:55.266Z,4.80
2023-04-23T17:56:54.320Z,4.05
2023-04-23T18:01:53.156Z,3.40
2023-04-23T18:06:51.983Z,4.60
2023-04-23T18:11:52.314Z,4.35
2023-04-23T18:16:51.167Z,4.13
2023-04-23T18:21:50.745Z,4.43
2023-04-23T18:26:52.183Z,3.30
2023-04-23T18:31:53.898Z,3.90
2023-04-23T18:36:56.521Z,3.43
2023-04-23T18:41:56.018Z,3.45
2023-04-23T18:46:56.742Z,4.15
2023-04-23T18:51:55.817Z,3.97
2023-04-23T18:56:54.811Z,3.60
2023-04-23T19:01:53.780Z,4.00
2023-04-23T19:06:54.007Z,4.07
2023-04-23T19:11:54.921Z,3.72
2023-04-23T19:16:58.652Z,3.30
2023-04-23T19:22:00.098Z,3.15
2023-04-23T19:27:00.190Z,3.67
2023-04-23T19:31:59.182Z,2.90
2023-04-23T19:37:01.065Z,3.22
2023-04-23T19:42:02.723Z,3.15
2023-04-23T19:47:05.893Z,3.53
2023-04-23T19:57:09.907Z,2.75
2023-04-23T20:02:12.766Z,3.38
2023-04-23T20:12:13.960Z,3.55
2023-04-23T20:17:14.127Z,3.13
2023-04-23T20:22:14.535Z,3.33
2023-04-23T20:27:13.653Z,3.05
2023-04-23T20:32:12.804Z,3.53
2023-04-23T20:37:12.725Z,3.17
2023-04-23T20:42:13.397Z,3.75
2023-04-23T20:47:13.216Z,4.82
2023-04-23T20:52:14.028Z,4.13
2023-04-23T20:57:15.185Z,3.42
2023-04-23T21:02:15.452Z,3.65
2023-04-23T21:07:14.354Z,4.45
2023-04-23T21:12:14.623Z,3.65
2023-04-23T21:17:13.428Z,4.05
2023-04-23T21:22:12.212Z,4.03
2023-04-23T21:27:11.829Z,3.78
2023-04-23T21:32:12.056Z,3.20
2023-04-23T21:37:10.956Z,3.05
2023-04-23T21:42:09.749Z,3.40
2023-04-23T21:47:08.570Z,4.32
2023-04-23T21:52:09.557Z,3.42
2023-04-23T21:57:10.187Z,3.53
2023-04-23T22:02:09.075Z,3.00
2023-04-23T22:07:12.574Z,4.57
2023-04-23T22:12:11.972Z,3.67
2023-04-23T22:17:10.847Z,3.80
2023-04-23T22:22:10.964Z,3.38
2023-04-23T22:27:09.863Z,3.90
2023-04-23T22:32:08.663Z,4.88
2023-04-23T22:37:07.803Z,3.60
2023-04-23T22:42:08.046Z,3.85
2023-04-23T22:47:06.949Z,4.07
2023-04-23T22:52:05.880Z,2.65
2023-04-23T22:57:05.056Z,3.35
2023-04-23T23:02:05.287Z,3.65
2023-04-23T23:07:04.196Z,3.20
2023-04-23T23:13:00.889Z,4.30
2023-04-23T23:18:01.254Z,3.22
2023-04-23T23:23:00.273Z,3.25
2023-04-23T23:27:58.998Z,3.53
2023-04-23T23:32:58.033Z,3.70
2023-04-23T23:37:58.079Z,3.22
2023-04-23T23:42:57.062Z,3.15
2023-04-23T23:47:56.428Z,2.72
2023-04-23T23:52:56.780Z,4.38
2023-04-23T23:57:57.613Z,3.75
